West Lexington, Virginia
Current Conditions -  °F | °C
As of 12:15 AM on Sunday 26 Oct 2014 (Local Time) from KHSP Reporting Station
Broken Clouds Broken Clouds  
Wind Chill: 52°   Ceiling: 1500
Heat Index: 52°   Visibility: 10mi
Dew Point: 47°   Wind: 24mph
Humidity: 85%   Direction: 280°W
Pressure: 29.83"   Gusts: 35mph
Location:  37.7866°N, 79.5193°W
Report Text: KHSP 260415Z AUTO 28021G30KT 10SM SCT009 BKN015 BKN023 11/09 A2983 RMK AO2 T01100086
Loading
Personal Weather Stations






























Interactive Weather Map
Tropical Storm Tracking
New forecast layout! Learn more

10-Day Weather Forecast

Advertisements
Track Severe Weather on mobile